Diyarbakir Airport
LTCC : now visible

Airfield :











YOU CAN JOIN US ON...

 
LOGIN :

Register | Disclaimer

   EN    FR    IT 

 









Legend :    VFR   Marginal VFR   IFR   Intensive IFR   Very Intensive IFR
Visi :
Ceiling :
>= 8 km
>= 3000ft
5 to 8 km
1000 to 3000 ft
1500m to 5 km
500 to 1000 ft
800 to 1500m
200 to 500 ft
< 800m
< 200 ft
Symbols :   Thunderstorms  Fog  Heavy snow  Heavy precipitations  Wind > 20 kt






- Airport Elevation : 2251 ft
- IATA code : DIY


LTCC - Diyarbakir

CURRENT METAR :
  • 011420Z 12007KT 080V140 9999 SCT040 BKN100 10/07 Q1020 NOSIG RMK RWY16 10007KT 070V150

EXPIRED METARs :
  • 011350Z 12006KT 9999 SCT040 BKN100 10/08 Q1019 NOSIG RMK RWY16 10008KT 080V140
  • 011320Z 11007KT 9999 SCT040 BKN100 11/08 Q1019 NOSIG RMK RWY16 10007KT 080V150
  • 011250Z 10008KT 9999 BKN040 BKN100 11/08 Q1019 NOSIG
  • 011220Z 10006KT 070V130 9999 BKN040 BKN100 11/08 Q1019 NOSIG RMK RWY16 10006KT 080V150
  • 011150Z 09008KT 070V130 9999 SCT040 BKN100 11/08 Q1019 NOSIG RMK RWY16 09005KT

TAF TAF LTCC
Valid from the 01 at 12:00 until the 02 at 12:00 UTC


011040Z 0112/0212 VRB02KT 9999 SCT040 BKN100
TEMPO 0112/0115 -RA BKN035 BKN090
PROB30
TEMPO 0203/0207 4000 BR



MET'MAP, your aeronautical weather chart ! - Copyright ORBIFLY December 2007 - Disclaimer

ORBIFLY MET'MAP TEAM :

Programming & Development : Alexandra Zaïnal
Concept & original design : Baudouin d'Aumeries
Assistance for programming : Marc-Olivier Méhu
Technical & hardware support : Manuel Goepfert

Contact : metmap@orbifly.com




SOURCES & CREDITS :

   NOAA       Earth
Advisory